sensor_id;sensor_type;location;lat;lon;timestamp;P1;durP1;ratioP1;P2;durP2;ratioP2
74749;SDS011;63269;53.330;-6.288;2023-12-20T00:01:16;6.38;;;2.80;;
74749;SDS011;63269;53.330;-6.288;2023-12-20T00:03:41;7.20;;;2.20;;
74749;SDS011;63269;53.330;-6.288;2023-12-20T00:06:07;8.52;;;2.50;;
74749;SDS011;63269;53.330;-6.288;2023-12-20T00:08:32;9.13;;;3.13;;
74749;SDS011;63269;53.330;-6.288;2023-12-20T00:10:58;8.07;;;2.33;;
74749;SDS011;63269;53.330;-6.288;2023-12-20T00:13:23;10.82;;;2.90;;
74749;SDS011;63269;53.330;-6.288;2023-12-20T00:15:49;9.95;;;2.67;;
74749;SDS011;63269;53.330;-6.288;2023-12-20T00:18:14;5.75;;;2.28;;
74749;SDS011;63269;53.330;-6.288;2023-12-20T00:20:40;8.60;;;2.40;;
74749;SDS011;63269;53.330;-6.288;2023-12-20T00:23:05;7.47;;;2.25;;
74749;SDS011;63269;53.330;-6.288;2023-12-20T00:25:30;11.23;;;2.40;;
74749;SDS011;63269;53.330;-6.288;2023-12-20T00:27:56;9.32;;;2.30;;
74749;SDS011;63269;53.330;-6.288;2023-12-20T00:30:21;10.45;;;2.60;;
74749;SDS011;63269;53.330;-6.288;2023-12-20T00:32:47;8.18;;;2.47;;
74749;SDS011;63269;53.330;-6.288;2023-12-20T00:35:13;7.82;;;2.50;;
74749;SDS011;63269;53.330;-6.288;2023-12-20T00:37:39;8.45;;;2.15;;
74749;SDS011;63269;53.330;-6.288;2023-12-20T00:40:04;7.68;;;2.20;;
74749;SDS011;63269;53.330;-6.288;2023-12-20T00:42:31;7.53;;;2.30;;
74749;SDS011;63269;53.330;-6.288;2023-12-20T00:44:57;8.70;;;2.80;;
74749;SDS011;63269;53.330;-6.288;2023-12-20T00:47:22;10.45;;;3.55;;
74749;SDS011;63269;53.330;-6.288;2023-12-20T00:49:48;8.35;;;2.70;;
74749;SDS011;63269;53.330;-6.288;2023-12-20T00:52:13;6.40;;;2.13;;
74749;SDS011;63269;53.330;-6.288;2023-12-20T00:54:39;7.07;;;2.47;;
74749;SDS011;63269;53.330;-6.288;2023-12-20T00:57:04;10.77;;;2.85;;
74749;SDS011;63269;53.330;-6.288;2023-12-20T00:59:30;8.00;;;2.58;;
74749;SDS011;63269;53.330;-6.288;2023-12-20T01:01:55;9.35;;;3.40;;
74749;SDS011;63269;53.330;-6.288;2023-12-20T01:04:23;6.90;;;2.42;;
74749;SDS011;63269;53.330;-6.288;2023-12-20T01:06:48;7.93;;;2.47;;
74749;SDS011;63269;53.330;-6.288;2023-12-20T01:09:13;6.28;;;2.38;;
74749;SDS011;63269;53.330;-6.288;2023-12-20T01:11:39;9.35;;;2.78;;
74749;SDS011;63269;53.330;-6.288;2023-12-20T01:14:04;8.27;;;2.40;;
74749;SDS011;63269;53.330;-6.288;2023-12-20T01:16:30;7.18;;;2.08;;
74749;SDS011;63269;53.330;-6.288;2023-12-20T01:18:55;7.25;;;2.30;;
74749;SDS011;63269;53.330;-6.288;2023-12-20T01:21:21;9.02;;;2.42;;
74749;SDS011;63269;53.330;-6.288;2023-12-20T01:23:46;4.78;;;2.03;;
74749;SDS011;63269;53.330;-6.288;2023-12-20T01:26:12;7.03;;;2.83;;
74749;SDS011;63269;53.330;-6.288;2023-12-20T01:28:37;6.20;;;2.05;;
74749;SDS011;63269;53.330;-6.288;2023-12-20T01:31:03;7.75;;;1.98;;
74749;SDS011;63269;53.330;-6.288;2023-12-20T01:33:29;7.28;;;2.20;;
74749;SDS011;63269;53.330;-6.288;2023-12-20T01:35:54;7.63;;;2.50;;
74749;SDS011;63269;53.330;-6.288;2023-12-20T01:38:20;7.50;;;2.13;;
74749;SDS011;63269;53.330;-6.288;2023-12-20T01:40:45;6.25;;;2.20;;
74749;SDS011;63269;53.330;-6.288;2023-12-20T01:43:11;6.25;;;2.20;;
74749;SDS011;63269;53.330;-6.288;2023-12-20T01:45:37;6.72;;;2.10;;
74749;SDS011;63269;53.330;-6.288;2023-12-20T01:48:03;7.00;;;2.40;;
74749;SDS011;63269;53.330;-6.288;2023-12-20T01:50:30;9.00;;;2.33;;
74749;SDS011;63269;53.330;-6.288;2023-12-20T01:52:56;8.88;;;2.60;;
74749;SDS011;63269;53.330;-6.288;2023-12-20T01:55:25;5.30;;;1.63;;
74749;SDS011;63269;53.330;-6.288;2023-12-20T01:57:54;5.32;;;1.70;;
74749;SDS011;63269;53.330;-6.288;2023-12-20T02:00:20;7.97;;;2.25;;
74749;SDS011;63269;53.330;-6.288;2023-12-20T02:02:48;5.63;;;2.13;;
74749;SDS011;63269;53.330;-6.288;2023-12-20T02:05:15;6.28;;;2.20;;
74749;SDS011;63269;53.330;-6.288;2023-12-20T02:07:42;7.93;;;1.73;;
74749;SDS011;63269;53.330;-6.288;2023-12-20T02:10:07;5.90;;;2.00;;
74749;SDS011;63269;53.330;-6.288;2023-12-20T02:12:33;9.77;;;2.55;;
74749;SDS011;63269;53.330;-6.288;2023-12-20T02:14:58;5.63;;;2.30;;
74749;SDS011;63269;53.330;-6.288;2023-12-20T02:17:24;5.22;;;1.90;;
74749;SDS011;63269;53.330;-6.288;2023-12-20T02:19:50;6.85;;;2.50;;
74749;SDS011;63269;53.330;-6.288;2023-12-20T02:22:16;4.97;;;1.73;;
74749;SDS011;63269;53.330;-6.288;2023-12-20T02:24:41;6.07;;;2.13;;
74749;SDS011;63269;53.330;-6.288;2023-12-20T02:27:07;4.10;;;1.73;;
74749;SDS011;63269;53.330;-6.288;2023-12-20T02:29:33;4.82;;;1.80;;
74749;SDS011;63269;53.330;-6.288;2023-12-20T02:31:59;5.80;;;1.67;;
74749;SDS011;63269;53.330;-6.288;2023-12-20T02:34:25;8.00;;;1.70;;
74749;SDS011;63269;53.330;-6.288;2023-12-20T02:36:50;5.82;;;1.92;;
74749;SDS011;63269;53.330;-6.288;2023-12-20T02:39:16;4.78;;;1.67;;
74749;SDS011;63269;53.330;-6.288;2023-12-20T02:41:41;6.43;;;1.65;;
74749;SDS011;63269;53.330;-6.288;2023-12-20T02:44:07;6.38;;;1.60;;
74749;SDS011;63269;53.330;-6.288;2023-12-20T02:46:32;5.43;;;1.92;;
74749;SDS011;63269;53.330;-6.288;2023-12-20T02:48:58;6.28;;;1.95;;
74749;SDS011;63269;53.330;-6.288;2023-12-20T02:51:23;5.03;;;1.73;;
74749;SDS011;63269;53.330;-6.288;2023-12-20T02:53:49;4.95;;;1.92;;
74749;SDS011;63269;53.330;-6.288;2023-12-20T02:56:14;8.68;;;2.05;;
74749;SDS011;63269;53.330;-6.288;2023-12-20T02:58:39;4.20;;;1.40;;
74749;SDS011;63269;53.330;-6.288;2023-12-20T03:01:05;7.60;;;2.03;;
74749;SDS011;63269;53.330;-6.288;2023-12-20T03:03:31;5.00;;;1.92;;
74749;SDS011;63269;53.330;-6.288;2023-12-20T03:05:56;4.95;;;1.80;;
74749;SDS011;63269;53.330;-6.288;2023-12-20T03:08:22;6.45;;;2.33;;
74749;SDS011;63269;53.330;-6.288;2023-12-20T03:10:48;4.72;;;1.88;;
74749;SDS011;63269;53.330;-6.288;2023-12-20T03:13:13;5.72;;;1.65;;
74749;SDS011;63269;53.330;-6.288;2023-12-20T03:15:39;3.55;;;1.60;;
74749;SDS011;63269;53.330;-6.288;2023-12-20T03:18:05;6.07;;;1.48;;
74749;SDS011;63269;53.330;-6.288;2023-12-20T03:20:30;4.55;;;1.48;;
74749;SDS011;63269;53.330;-6.288;2023-12-20T03:23:02;5.80;;;1.85;;
74749;SDS011;63269;53.330;-6.288;2023-12-20T03:25:27;6.07;;;1.63;;
74749;SDS011;63269;53.330;-6.288;2023-12-20T03:27:53;5.07;;;2.08;;
74749;SDS011;63269;53.330;-6.288;2023-12-20T03:30:18;6.75;;;1.67;;
74749;SDS011;63269;53.330;-6.288;2023-12-20T03:32:44;5.40;;;1.60;;
74749;SDS011;63269;53.330;-6.288;2023-12-20T03:35:10;5.05;;;1.52;;
74749;SDS011;63269;53.330;-6.288;2023-12-20T03:37:36;5.38;;;1.60;;
74749;SDS011;63269;53.330;-6.288;2023-12-20T03:40:02;3.17;;;1.20;;
74749;SDS011;63269;53.330;-6.288;2023-12-20T03:42:28;3.53;;;1.40;;
74749;SDS011;63269;53.330;-6.288;2023-12-20T03:44:53;5.03;;;1.52;;
74749;SDS011;63269;53.330;-6.288;2023-12-20T03:47:18;4.57;;;1.75;;
74749;SDS011;63269;53.330;-6.288;2023-12-20T03:49:44;5.80;;;1.67;;
74749;SDS011;63269;53.330;-6.288;2023-12-20T03:52:09;4.88;;;1.70;;
74749;SDS011;63269;53.330;-6.288;2023-12-20T03:54:35;5.07;;;1.67;;
74749;SDS011;63269;53.330;-6.288;2023-12-20T03:57:00;6.55;;;1.40;;
74749;SDS011;63269;53.330;-6.288;2023-12-20T03:59:26;6.18;;;1.80;;
74749;SDS011;63269;53.330;-6.288;2023-12-20T04:01:51;3.70;;;1.42;;
74749;SDS011;63269;53.330;-6.288;2023-12-20T04:04:17;3.17;;;1.60;;
74749;SDS011;63269;53.330;-6.288;2023-12-20T04:06:42;3.03;;;1.13;;
74749;SDS011;63269;53.330;-6.288;2023-12-20T04:09:08;4.70;;;1.13;;
74749;SDS011;63269;53.330;-6.288;2023-12-20T04:11:36;5.07;;;1.73;;
74749;SDS011;63269;53.330;-6.288;2023-12-20T04:14:02;3.83;;;1.52;;
74749;SDS011;63269;53.330;-6.288;2023-12-20T04:16:27;5.55;;;1.83;;
74749;SDS011;63269;53.330;-6.288;2023-12-20T04:18:53;6.15;;;1.23;;
74749;SDS011;63269;53.330;-6.288;2023-12-20T04:21:18;3.30;;;1.20;;
74749;SDS011;63269;53.330;-6.288;2023-12-20T04:23:44;2.83;;;1.00;;
74749;SDS011;63269;53.330;-6.288;2023-12-20T04:26:10;3.58;;;1.58;;
74749;SDS011;63269;53.330;-6.288;2023-12-20T04:28:35;4.30;;;1.08;;
74749;SDS011;63269;53.330;-6.288;2023-12-20T04:31:00;3.53;;;1.23;;
74749;SDS011;63269;53.330;-6.288;2023-12-20T04:33:26;3.50;;;1.27;;
74749;SDS011;63269;53.330;-6.288;2023-12-20T04:35:51;2.45;;;1.23;;
74749;SDS011;63269;53.330;-6.288;2023-12-20T04:38:17;3.25;;;1.08;;
74749;SDS011;63269;53.330;-6.288;2023-12-20T04:40:42;4.75;;;1.55;;
74749;SDS011;63269;53.330;-6.288;2023-12-20T04:43:07;3.55;;;1.40;;
74749;SDS011;63269;53.330;-6.288;2023-12-20T04:45:34;3.00;;;1.30;;
74749;SDS011;63269;53.330;-6.288;2023-12-20T04:47:59;4.00;;;1.83;;
74749;SDS011;63269;53.330;-6.288;2023-12-20T04:50:26;2.75;;;1.10;;
74749;SDS011;63269;53.330;-6.288;2023-12-20T04:52:51;5.97;;;1.52;;
74749;SDS011;63269;53.330;-6.288;2023-12-20T04:55:17;3.28;;;1.35;;
74749;SDS011;63269;53.330;-6.288;2023-12-20T04:57:42;3.97;;;1.17;;
74749;SDS011;63269;53.330;-6.288;2023-12-20T05:00:08;4.13;;;1.83;;
74749;SDS011;63269;53.330;-6.288;2023-12-20T05:02:34;3.03;;;0.90;;
74749;SDS011;63269;53.330;-6.288;2023-12-20T05:05:00;3.47;;;1.23;;
74749;SDS011;63269;53.330;-6.288;2023-12-20T05:07:26;2.78;;;0.98;;
74749;SDS011;63269;53.330;-6.288;2023-12-20T05:09:51;4.05;;;0.82;;
74749;SDS011;63269;53.330;-6.288;2023-12-20T05:12:16;2.97;;;1.08;;
74749;SDS011;63269;53.330;-6.288;2023-12-20T05:14:42;3.92;;;1.25;;
74749;SDS011;63269;53.330;-6.288;2023-12-20T05:17:07;2.63;;;1.25;;
74749;SDS011;63269;53.330;-6.288;2023-12-20T05:19:33;4.25;;;1.30;;
74749;SDS011;63269;53.330;-6.288;2023-12-20T05:22:00;3.90;;;1.30;;
74749;SDS011;63269;53.330;-6.288;2023-12-20T05:24:26;2.92;;;1.08;;
74749;SDS011;63269;53.330;-6.288;2023-12-20T05:26:52;3.30;;;1.20;;
74749;SDS011;63269;53.330;-6.288;2023-12-20T05:29:17;2.88;;;0.90;;
74749;SDS011;63269;53.330;-6.288;2023-12-20T05:31:43;4.28;;;1.38;;
74749;SDS011;63269;53.330;-6.288;2023-12-20T05:34:08;3.20;;;1.15;;
74749;SDS011;63269;53.330;-6.288;2023-12-20T05:36:34;3.47;;;1.25;;
74749;SDS011;63269;53.330;-6.288;2023-12-20T05:38:59;2.58;;;0.90;;
74749;SDS011;63269;53.330;-6.288;2023-12-20T05:41:25;3.65;;;1.30;;
74749;SDS011;63269;53.330;-6.288;2023-12-20T05:43:50;3.05;;;0.88;;
74749;SDS011;63269;53.330;-6.288;2023-12-20T05:46:16;4.60;;;1.13;;
74749;SDS011;63269;53.330;-6.288;2023-12-20T05:48:41;3.70;;;1.05;;
74749;SDS011;63269;53.330;-6.288;2023-12-20T05:51:06;2.97;;;0.98;;
74749;SDS011;63269;53.330;-6.288;2023-12-20T05:53:33;4.65;;;1.38;;
74749;SDS011;63269;53.330;-6.288;2023-12-20T05:55:58;3.08;;;0.98;;
74749;SDS011;63269;53.330;-6.288;2023-12-20T05:58:24;2.13;;;1.00;;
74749;SDS011;63269;53.330;-6.288;2023-12-20T06:00:50;5.10;;;1.23;;
74749;SDS011;63269;53.330;-6.288;2023-12-20T06:03:15;3.03;;;1.10;;
74749;SDS011;63269;53.330;-6.288;2023-12-20T06:05:40;2.53;;;1.00;;
74749;SDS011;63269;53.330;-6.288;2023-12-20T06:08:06;4.07;;;1.45;;
74749;SDS011;63269;53.330;-6.288;2023-12-20T06:10:31;2.40;;;0.90;;
74749;SDS011;63269;53.330;-6.288;2023-12-20T06:12:57;3.92;;;1.40;;
74749;SDS011;63269;53.330;-6.288;2023-12-20T06:15:23;3.72;;;1.30;;
74749;SDS011;63269;53.330;-6.288;2023-12-20T06:17:49;3.42;;;1.30;;
74749;SDS011;63269;53.330;-6.288;2023-12-20T06:20:14;4.28;;;1.35;;
74749;SDS011;63269;53.330;-6.288;2023-12-20T06:22:40;3.40;;;1.40;;
74749;SDS011;63269;53.330;-6.288;2023-12-20T06:25:06;3.20;;;1.02;;
74749;SDS011;63269;53.330;-6.288;2023-12-20T06:27:32;4.13;;;0.75;;
74749;SDS011;63269;53.330;-6.288;2023-12-20T06:29:57;3.92;;;1.70;;
74749;SDS011;63269;53.330;-6.288;2023-12-20T06:32:23;3.55;;;0.80;;
74749;SDS011;63269;53.330;-6.288;2023-12-20T06:34:49;2.22;;;1.00;;
74749;SDS011;63269;53.330;-6.288;2023-12-20T06:37:14;2.30;;;0.50;;
74749;SDS011;63269;53.330;-6.288;2023-12-20T06:39:40;2.30;;;0.95;;
74749;SDS011;63269;53.330;-6.288;2023-12-20T06:42:06;3.30;;;1.15;;
74749;SDS011;63269;53.330;-6.288;2023-12-20T06:44:31;3.55;;;1.17;;
74749;SDS011;63269;53.330;-6.288;2023-12-20T06:46:57;2.67;;;0.98;;
74749;SDS011;63269;53.330;-6.288;2023-12-20T06:49:23;3.35;;;0.90;;
74749;SDS011;63269;53.330;-6.288;2023-12-20T06:51:48;3.58;;;0.90;;
74749;SDS011;63269;53.330;-6.288;2023-12-20T06:54:14;3.80;;;0.95;;
74749;SDS011;63269;53.330;-6.288;2023-12-20T06:56:39;4.13;;;0.95;;
74749;SDS011;63269;53.330;-6.288;2023-12-20T06:59:06;4.05;;;1.08;;
74749;SDS011;63269;53.330;-6.288;2023-12-20T07:01:31;2.22;;;0.88;;
74749;SDS011;63269;53.330;-6.288;2023-12-20T07:03:57;2.92;;;1.15;;
74749;SDS011;63269;53.330;-6.288;2023-12-20T07:06:22;1.42;;;0.82;;
74749;SDS011;63269;53.330;-6.288;2023-12-20T07:08:48;2.25;;;0.80;;
74749;SDS011;63269;53.330;-6.288;2023-12-20T07:11:13;2.85;;;1.13;;
74749;SDS011;63269;53.330;-6.288;2023-12-20T07:13:38;2.72;;;0.85;;
74749;SDS011;63269;53.330;-6.288;2023-12-20T07:16:04;2.13;;;0.70;;
74749;SDS011;63269;53.330;-6.288;2023-12-20T07:18:30;2.05;;;0.90;;
74749;SDS011;63269;53.330;-6.288;2023-12-20T07:20:55;1.98;;;0.70;;
74749;SDS011;63269;53.330;-6.288;2023-12-20T07:23:20;3.38;;;0.85;;
74749;SDS011;63269;53.330;-6.288;2023-12-20T07:25:46;1.95;;;0.90;;
74749;SDS011;63269;53.330;-6.288;2023-12-20T07:28:12;2.00;;;0.70;;
74749;SDS011;63269;53.330;-6.288;2023-12-20T07:30:38;1.73;;;0.73;;
74749;SDS011;63269;53.330;-6.288;2023-12-20T07:33:03;2.33;;;0.70;;
74749;SDS011;63269;53.330;-6.288;2023-12-20T07:35:29;1.55;;;0.65;;
74749;SDS011;63269;53.330;-6.288;2023-12-20T07:37:54;2.90;;;1.13;;
74749;SDS011;63269;53.330;-6.288;2023-12-20T07:40:20;2.47;;;0.98;;
74749;SDS011;63269;53.330;-6.288;2023-12-20T07:42:45;2.70;;;0.88;;
74749;SDS011;63269;53.330;-6.288;2023-12-20T07:45:11;1.65;;;0.70;;
74749;SDS011;63269;53.330;-6.288;2023-12-20T07:47:37;2.50;;;0.90;;
74749;SDS011;63269;53.330;-6.288;2023-12-20T07:50:02;1.70;;;0.77;;
74749;SDS011;63269;53.330;-6.288;2023-12-20T07:52:28;1.65;;;0.80;;
74749;SDS011;63269;53.330;-6.288;2023-12-20T07:54:54;2.08;;;0.98;;
74749;SDS011;63269;53.330;-6.288;2023-12-20T07:57:20;2.35;;;0.80;;
74749;SDS011;63269;53.330;-6.288;2023-12-20T07:59:46;5.00;;;0.93;;
74749;SDS011;63269;53.330;-6.288;2023-12-20T08:02:11;2.97;;;0.50;;
74749;SDS011;63269;53.330;-6.288;2023-12-20T08:04:37;3.88;;;0.77;;
74749;SDS011;63269;53.330;-6.288;2023-12-20T08:07:03;2.22;;;0.90;;
74749;SDS011;63269;53.330;-6.288;2023-12-20T08:09:28;3.72;;;1.08;;
74749;SDS011;63269;53.330;-6.288;2023-12-20T08:11:54;1.88;;;0.82;;
74749;SDS011;63269;53.330;-6.288;2023-12-20T08:14:20;4.88;;;1.52;;
74749;SDS011;63269;53.330;-6.288;2023-12-20T08:16:45;3.55;;;1.25;;
74749;SDS011;63269;53.330;-6.288;2023-12-20T08:19:11;2.60;;;0.80;;
74749;SDS011;63269;53.330;-6.288;2023-12-20T08:21:37;2.03;;;0.90;;
74749;SDS011;63269;53.330;-6.288;2023-12-20T08:24:02;3.53;;;0.82;;
74749;SDS011;63269;53.330;-6.288;2023-12-20T08:26:28;2.15;;;0.70;;
74749;SDS011;63269;53.330;-6.288;2023-12-20T08:28:53;3.55;;;1.20;;
74749;SDS011;63269;53.330;-6.288;2023-12-20T08:31:19;12.73;;;1.50;;
74749;SDS011;63269;53.330;-6.288;2023-12-20T08:33:44;3.20;;;1.17;;
74749;SDS011;63269;53.330;-6.288;2023-12-20T08:36:11;3.17;;;1.02;;
74749;SDS011;63269;53.330;-6.288;2023-12-20T08:38:37;3.63;;;0.80;;
74749;SDS011;63269;53.330;-6.288;2023-12-20T08:41:02;3.17;;;1.20;;
74749;SDS011;63269;53.330;-6.288;2023-12-20T08:43:30;4.65;;;1.10;;
74749;SDS011;63269;53.330;-6.288;2023-12-20T08:46:02;3.70;;;0.73;;
74749;SDS011;63269;53.330;-6.288;2023-12-20T08:48:28;3.20;;;1.08;;
74749;SDS011;63269;53.330;-6.288;2023-12-20T08:50:54;5.63;;;1.13;;
74749;SDS011;63269;53.330;-6.288;2023-12-20T08:53:19;6.05;;;1.17;;
74749;SDS011;63269;53.330;-6.288;2023-12-20T08:55:45;2.65;;;1.25;;
74749;SDS011;63269;53.330;-6.288;2023-12-20T08:58:11;3.40;;;1.20;;
74749;SDS011;63269;53.330;-6.288;2023-12-20T09:00:36;2.75;;;0.90;;
74749;SDS011;63269;53.330;-6.288;2023-12-20T09:03:02;4.15;;;1.20;;
74749;SDS011;63269;53.330;-6.288;2023-12-20T09:05:27;3.33;;;1.67;;
74749;SDS011;63269;53.330;-6.288;2023-12-20T09:07:53;2.67;;;1.35;;
74749;SDS011;63269;53.330;-6.288;2023-12-20T09:10:19;5.50;;;1.67;;
74749;SDS011;63269;53.330;-6.288;2023-12-20T09:12:50;4.25;;;1.20;;
74749;SDS011;63269;53.330;-6.288;2023-12-20T09:15:16;3.20;;;1.27;;
74749;SDS011;63269;53.330;-6.288;2023-12-20T09:17:42;5.55;;;1.42;;
74749;SDS011;63269;53.330;-6.288;2023-12-20T09:20:08;9.25;;;2.00;;
74749;SDS011;63269;53.330;-6.288;2023-12-20T09:22:34;11.90;;;1.92;;
74749;SDS011;63269;53.330;-6.288;2023-12-20T09:25:00;8.23;;;1.85;;
74749;SDS011;63269;53.330;-6.288;2023-12-20T09:27:27;9.05;;;2.08;;
74749;SDS011;63269;53.330;-6.288;2023-12-20T09:29:52;7.55;;;2.03;;
74749;SDS011;63269;53.330;-6.288;2023-12-20T09:32:18;9.27;;;1.50;;
74749;SDS011;63269;53.330;-6.288;2023-12-20T09:34:45;4.72;;;1.42;;
74749;SDS011;63269;53.330;-6.288;2023-12-20T09:37:11;9.23;;;1.70;;
74749;SDS011;63269;53.330;-6.288;2023-12-20T09:39:36;4.72;;;1.30;;
74749;SDS011;63269;53.330;-6.288;2023-12-20T09:42:05;9.50;;;1.40;;
74749;SDS011;63269;53.330;-6.288;2023-12-20T09:44:32;6.90;;;2.00;;
74749;SDS011;63269;53.330;-6.288;2023-12-20T09:46:59;6.00;;;1.90;;
74749;SDS011;63269;53.330;-6.288;2023-12-20T09:49:27;12.13;;;2.42;;
74749;SDS011;63269;53.330;-6.288;2023-12-20T09:51:53;6.00;;;1.90;;
74749;SDS011;63269;53.330;-6.288;2023-12-20T09:54:20;4.70;;;1.65;;
74749;SDS011;63269;53.330;-6.288;2023-12-20T09:56:47;8.40;;;2.58;;
74749;SDS011;63269;53.330;-6.288;2023-12-20T09:59:12;5.43;;;1.65;;
74749;SDS011;63269;53.330;-6.288;2023-12-20T10:01:41;6.07;;;1.83;;
74749;SDS011;63269;53.330;-6.288;2023-12-20T10:04:08;7.05;;;2.25;;
74749;SDS011;63269;53.330;-6.288;2023-12-20T10:06:40;9.98;;;1.83;;
74749;SDS011;63269;53.330;-6.288;2023-12-20T10:09:07;6.53;;;1.77;;
74749;SDS011;63269;53.330;-6.288;2023-12-20T10:11:35;4.22;;;1.85;;
74749;SDS011;63269;53.330;-6.288;2023-12-20T10:14:02;5.72;;;1.63;;
74749;SDS011;63269;53.330;-6.288;2023-12-20T10:16:29;6.93;;;1.90;;
74749;SDS011;63269;53.330;-6.288;2023-12-20T10:18:55;7.10;;;1.90;;
74749;SDS011;63269;53.330;-6.288;2023-12-20T10:21:21;5.82;;;2.47;;
74749;SDS011;63269;53.330;-6.288;2023-12-20T10:23:48;6.50;;;2.25;;
74749;SDS011;63269;53.330;-6.288;2023-12-20T10:26:20;8.98;;;2.33;;
74749;SDS011;63269;53.330;-6.288;2023-12-20T10:29:22;8.70;;;2.00;;
74749;SDS011;63269;53.330;-6.288;2023-12-20T10:31:40;4.82;;;2.08;;
74749;SDS011;63269;53.330;-6.288;2023-12-20T10:34:07;9.10;;;2.10;;
74749;SDS011;63269;53.330;-6.288;2023-12-20T10:36:33;6.97;;;1.73;;
74749;SDS011;63269;53.330;-6.288;2023-12-20T10:38:59;5.00;;;2.20;;
74749;SDS011;63269;53.330;-6.288;2023-12-20T10:41:27;7.47;;;2.38;;
74749;SDS011;63269;53.330;-6.288;2023-12-20T10:46:27;8.18;;;2.65;;
74749;SDS011;63269;53.330;-6.288;2023-12-20T10:48:56;7.85;;;2.47;;
74749;SDS011;63269;53.330;-6.288;2023-12-20T10:51:22;5.95;;;1.80;;
74749;SDS011;63269;53.330;-6.288;2023-12-20T10:53:51;10.07;;;2.63;;
74749;SDS011;63269;53.330;-6.288;2023-12-20T10:56:17;9.70;;;2.03;;
74749;SDS011;63269;53.330;-6.288;2023-12-20T10:58:43;7.68;;;2.60;;
74749;SDS011;63269;53.330;-6.288;2023-12-20T11:01:10;8.73;;;2.30;;
74749;SDS011;63269;53.330;-6.288;2023-12-20T11:03:38;8.45;;;2.83;;
74749;SDS011;63269;53.330;-6.288;2023-12-20T11:06:19;7.93;;;2.30;;
74749;SDS011;63269;53.330;-6.288;2023-12-20T11:09:12;7.63;;;2.90;;
74749;SDS011;63269;53.330;-6.288;2023-12-20T11:14:39;8.35;;;2.53;;
74749;SDS011;63269;53.330;-6.288;2023-12-20T11:17:14;7.77;;;2.23;;
74749;SDS011;63269;53.330;-6.288;2023-12-20T11:22:22;7.30;;;2.40;;
74749;SDS011;63269;53.330;-6.288;2023-12-20T11:24:50;7.35;;;2.20;;
74749;SDS011;63269;53.330;-6.288;2023-12-20T11:27:16;9.23;;;3.08;;
74749;SDS011;63269;53.330;-6.288;2023-12-20T11:29:51;9.32;;;2.63;;
74749;SDS011;63269;53.330;-6.288;2023-12-20T11:34:57;8.48;;;2.70;;
74749;SDS011;63269;53.330;-6.288;2023-12-20T11:37:31;9.63;;;2.55;;
74749;SDS011;63269;53.330;-6.288;2023-12-20T11:40:05;11.65;;;2.45;;
74749;SDS011;63269;53.330;-6.288;2023-12-20T11:42:44;8.48;;;2.40;;
74749;SDS011;63269;53.330;-6.288;2023-12-20T11:47:40;9.77;;;2.50;;
74749;SDS011;63269;53.330;-6.288;2023-12-20T11:50:07;10.77;;;2.70;;
74749;SDS011;63269;53.330;-6.288;2023-12-20T11:52:33;11.32;;;3.83;;
74749;SDS011;63269;53.330;-6.288;2023-12-20T11:54:58;8.40;;;2.78;;
74749;SDS011;63269;53.330;-6.288;2023-12-20T11:57:24;8.02;;;2.88;;
74749;SDS011;63269;53.330;-6.288;2023-12-20T11:59:50;9.02;;;2.88;;
74749;SDS011;63269;53.330;-6.288;2023-12-20T12:02:15;7.43;;;2.95;;
74749;SDS011;63269;53.330;-6.288;2023-12-20T12:04:41;11.88;;;2.95;;
74749;SDS011;63269;53.330;-6.288;2023-12-20T12:07:07;10.43;;;2.85;;
74749;SDS011;63269;53.330;-6.288;2023-12-20T12:09:32;7.63;;;2.75;;
74749;SDS011;63269;53.330;-6.288;2023-12-20T12:11:58;10.40;;;2.97;;
74749;SDS011;63269;53.330;-6.288;2023-12-20T12:14:24;10.13;;;3.10;;
74749;SDS011;63269;53.330;-6.288;2023-12-20T12:16:49;9.35;;;3.08;;
74749;SDS011;63269;53.330;-6.288;2023-12-20T12:19:25;8.82;;;2.88;;
74749;SDS011;63269;53.330;-6.288;2023-12-20T12:21:52;9.52;;;3.50;;
74749;SDS011;63269;53.330;-6.288;2023-12-20T12:24:42;12.82;;;3.35;;
74749;SDS011;63269;53.330;-6.288;2023-12-20T12:27:08;10.95;;;3.40;;
74749;SDS011;63269;53.330;-6.288;2023-12-20T12:29:35;10.57;;;3.60;;
74749;SDS011;63269;53.330;-6.288;2023-12-20T12:32:02;13.13;;;3.80;;
74749;SDS011;63269;53.330;-6.288;2023-12-20T12:34:31;12.30;;;3.45;;
74749;SDS011;63269;53.330;-6.288;2023-12-20T12:36:56;11.23;;;3.95;;
74749;SDS011;63269;53.330;-6.288;2023-12-20T12:39:23;11.48;;;2.50;;
74749;SDS011;63269;53.330;-6.288;2023-12-20T12:41:50;11.52;;;3.40;;
74749;SDS011;63269;53.330;-6.288;2023-12-20T12:44:16;11.52;;;3.22;;
74749;SDS011;63269;53.330;-6.288;2023-12-20T12:46:42;10.93;;;3.47;;
74749;SDS011;63269;53.330;-6.288;2023-12-20T12:49:08;11.95;;;3.75;;
74749;SDS011;63269;53.330;-6.288;2023-12-20T12:51:34;9.20;;;3.78;;
74749;SDS011;63269;53.330;-6.288;2023-12-20T12:53:59;13.20;;;4.07;;
74749;SDS011;63269;53.330;-6.288;2023-12-20T12:56:25;12.05;;;3.60;;
74749;SDS011;63269;53.330;-6.288;2023-12-20T12:58:50;6.72;;;3.00;;
74749;SDS011;63269;53.330;-6.288;2023-12-20T13:01:16;12.20;;;3.15;;
74749;SDS011;63269;53.330;-6.288;2023-12-20T13:03:41;13.10;;;3.97;;
74749;SDS011;63269;53.330;-6.288;2023-12-20T13:06:07;12.55;;;3.53;;
74749;SDS011;63269;53.330;-6.288;2023-12-20T13:08:34;10.95;;;3.28;;
74749;SDS011;63269;53.330;-6.288;2023-12-20T13:10:59;11.15;;;3.42;;
74749;SDS011;63269;53.330;-6.288;2023-12-20T13:13:26;14.63;;;4.60;;
74749;SDS011;63269;53.330;-6.288;2023-12-20T13:15:52;9.52;;;3.78;;
74749;SDS011;63269;53.330;-6.288;2023-12-20T13:18:20;9.57;;;3.60;;
74749;SDS011;63269;53.330;-6.288;2023-12-20T13:20:45;14.23;;;3.83;;
74749;SDS011;63269;53.330;-6.288;2023-12-20T13:23:11;11.60;;;3.50;;
74749;SDS011;63269;53.330;-6.288;2023-12-20T13:25:36;9.80;;;3.50;;
74749;SDS011;63269;53.330;-6.288;2023-12-20T13:28:02;8.52;;;2.85;;
74749;SDS011;63269;53.330;-6.288;2023-12-20T13:30:30;9.23;;;3.40;;
74749;SDS011;63269;53.330;-6.288;2023-12-20T13:32:56;11.13;;;3.70;;
74749;SDS011;63269;53.330;-6.288;2023-12-20T13:35:21;12.10;;;3.72;;
74749;SDS011;63269;53.330;-6.288;2023-12-20T13:37:47;9.48;;;3.42;;
74749;SDS011;63269;53.330;-6.288;2023-12-20T13:40:12;9.55;;;3.65;;
74749;SDS011;63269;53.330;-6.288;2023-12-20T13:42:38;11.85;;;3.53;;
74749;SDS011;63269;53.330;-6.288;2023-12-20T13:45:04;12.23;;;4.40;;
74749;SDS011;63269;53.330;-6.288;2023-12-20T13:47:30;9.30;;;3.60;;
74749;SDS011;63269;53.330;-6.288;2023-12-20T13:49:56;9.40;;;3.15;;
74749;SDS011;63269;53.330;-6.288;2023-12-20T13:52:22;11.48;;;3.80;;
74749;SDS011;63269;53.330;-6.288;2023-12-20T13:54:47;8.60;;;2.70;;
74749;SDS011;63269;53.330;-6.288;2023-12-20T13:57:13;11.63;;;3.83;;
74749;SDS011;63269;53.330;-6.288;2023-12-20T13:59:39;9.85;;;3.08;;
74749;SDS011;63269;53.330;-6.288;2023-12-20T14:02:05;12.32;;;3.30;;
74749;SDS011;63269;53.330;-6.288;2023-12-20T14:04:30;11.48;;;2.97;;
74749;SDS011;63269;53.330;-6.288;2023-12-20T14:06:56;9.60;;;4.00;;
74749;SDS011;63269;53.330;-6.288;2023-12-20T14:09:22;11.25;;;3.33;;
74749;SDS011;63269;53.330;-6.288;2023-12-20T14:11:47;10.98;;;2.95;;
74749;SDS011;63269;53.330;-6.288;2023-12-20T14:14:13;10.77;;;3.33;;
74749;SDS011;63269;53.330;-6.288;2023-12-20T14:16:38;10.35;;;3.20;;
74749;SDS011;63269;53.330;-6.288;2023-12-20T14:19:03;10.48;;;3.55;;
74749;SDS011;63269;53.330;-6.288;2023-12-20T14:21:30;9.00;;;3.25;;
74749;SDS011;63269;53.330;-6.288;2023-12-20T14:23:55;8.70;;;3.25;;
74749;SDS011;63269;53.330;-6.288;2023-12-20T14:26:21;9.13;;;2.90;;
74749;SDS011;63269;53.330;-6.288;2023-12-20T14:28:46;9.25;;;3.30;;
74749;SDS011;63269;53.330;-6.288;2023-12-20T14:31:11;10.15;;;3.63;;
74749;SDS011;63269;53.330;-6.288;2023-12-20T14:33:37;9.60;;;2.80;;
74749;SDS011;63269;53.330;-6.288;2023-12-20T14:36:04;7.95;;;3.15;;
74749;SDS011;63269;53.330;-6.288;2023-12-20T14:38:30;10.35;;;3.40;;
74749;SDS011;63269;53.330;-6.288;2023-12-20T14:40:56;7.93;;;3.30;;